createdAt,value
2023-04-16T00:01:31.632Z,2.88
2023-04-16T00:04:00.520Z,3.08
2023-04-16T00:06:29.354Z,3.25
2023-04-16T00:08:57.903Z,3.00
2023-04-16T00:11:26.471Z,3.72
2023-04-16T00:13:55.997Z,3.55
2023-04-16T00:16:24.570Z,3.50
2023-04-16T00:18:54.616Z,2.92
2023-04-16T00:21:23.080Z,3.58
2023-04-16T00:23:51.651Z,3.35
2023-04-16T00:26:20.223Z,3.20
2023-04-16T00:28:48.753Z,3.13
2023-04-16T00:31:17.381Z,3.92
2023-04-16T00:33:45.863Z,3.13
2023-04-16T00:36:15.906Z,3.60
2023-04-16T00:38:44.456Z,3.35
2023-04-16T00:41:12.864Z,3.30
2023-04-16T00:43:41.402Z,3.47
2023-04-16T00:46:10.356Z,2.90
2023-04-16T00:48:40.401Z,3.17
2023-04-16T00:51:10.230Z,3.53
2023-04-16T00:53:40.448Z,2.75
2023-04-16T00:56:09.324Z,3.10
2023-04-16T00:58:38.594Z,3.15
2023-04-16T01:01:07.475Z,3.22
2023-04-16T01:03:39.990Z,3.42
2023-04-16T01:06:09.045Z,3.55
2023-04-16T01:08:37.527Z,3.40
2023-04-16T01:11:08.208Z,3.42
2023-04-16T01:13:39.918Z,3.53
2023-04-16T01:16:09.082Z,2.88
2023-04-16T01:18:38.294Z,3.13
2023-04-16T01:21:08.770Z,3.25
2023-04-16T01:23:37.304Z,3.47
2023-04-16T01:26:05.857Z,3.80
2023-04-16T01:28:34.433Z,2.70
2023-04-16T01:31:02.910Z,3.35
2023-04-16T01:33:50.141Z,3.53
2023-04-16T01:36:20.220Z,3.25
2023-04-16T01:38:48.722Z,3.70
2023-04-16T01:41:17.376Z,3.33
2023-04-16T01:43:45.781Z,3.63
2023-04-16T01:46:16.831Z,3.85
2023-04-16T01:51:13.850Z,2.97
2023-04-16T01:53:43.999Z,4.05
2023-04-16T01:56:12.683Z,3.88
2023-04-16T01:58:42.950Z,3.47
2023-04-16T02:01:12.025Z,3.60
2023-04-16T02:03:42.454Z,3.47
2023-04-16T02:06:11.295Z,3.75
2023-04-16T02:08:39.757Z,2.90
2023-04-16T02:11:10.384Z,3.85
2023-04-16T02:13:38.904Z,3.43
2023-04-16T02:16:07.971Z,3.28
2023-04-16T02:19:11.998Z,3.95
2023-04-16T02:21:42.993Z,3.95
2023-04-16T02:24:11.831Z,3.42
2023-04-16T02:26:42.032Z,3.50
2023-04-16T02:29:16.765Z,4.25
2023-04-16T02:31:51.722Z,3.78
2023-04-16T02:34:21.045Z,3.72
2023-04-16T02:36:49.788Z,3.30
2023-04-16T02:39:18.341Z,3.40
2023-04-16T02:41:48.300Z,3.38
2023-04-16T02:44:17.030Z,4.00
2023-04-16T02:46:45.646Z,3.13
2023-04-16T02:49:14.418Z,3.20
2023-04-16T02:51:42.879Z,3.47
2023-04-16T02:54:11.581Z,3.17
2023-04-16T02:56:40.129Z,3.53
2023-04-16T02:59:10.110Z,3.58
2023-04-16T03:01:38.894Z,3.33
2023-04-16T03:04:07.585Z,3.75
2023-04-16T03:06:36.249Z,3.88
2023-04-16T03:09:05.332Z,3.40
2023-04-16T03:11:34.104Z,3.00
2023-04-16T03:14:02.770Z,3.72
2023-04-16T03:16:32.862Z,4.13
2023-04-16T03:19:01.549Z,3.60
2023-04-16T03:21:30.163Z,3.72
2023-04-16T03:24:00.319Z,3.78
2023-04-16T03:26:28.961Z,3.83
2023-04-16T03:28:57.863Z,3.75
2023-04-16T03:31:26.813Z,3.83
2023-04-16T03:33:57.558Z,4.00
2023-04-16T03:36:27.326Z,3.83
2023-04-16T03:38:56.004Z,3.70
2023-04-16T03:41:25.403Z,4.00
2023-04-16T03:43:54.154Z,4.15
2023-04-16T03:46:22.774Z,4.25
2023-04-16T03:48:51.619Z,4.05
2023-04-16T03:51:22.140Z,4.25
2023-04-16T03:53:50.720Z,3.92
2023-04-16T03:56:20.122Z,4.88
2023-04-16T03:58:48.683Z,4.28
2023-04-16T04:01:17.422Z,3.97
2023-04-16T04:03:46.728Z,3.63
2023-04-16T04:06:16.917Z,3.90
2023-04-16T04:08:47.119Z,4.45
2023-04-16T04:11:16.667Z,3.95
2023-04-16T04:13:46.370Z,4.50
2023-04-16T04:16:15.100Z,4.70
2023-04-16T04:18:45.325Z,4.80
2023-04-16T04:21:17.225Z,4.80
2023-04-16T04:23:47.590Z,4.60
2023-04-16T04:26:16.750Z,4.50
2023-04-16T04:28:45.282Z,4.15
2023-04-16T04:31:14.049Z,4.68
2023-04-16T04:36:14.255Z,4.60
2023-04-16T04:38:43.820Z,4.65
2023-04-16T04:41:14.131Z,4.38
2023-04-16T04:43:42.882Z,5.10
2023-04-16T04:46:11.676Z,5.00
2023-04-16T04:48:42.069Z,5.53
2023-04-16T04:51:10.995Z,4.95
2023-04-16T04:53:39.580Z,5.32
2023-04-16T04:56:12.716Z,5.68
2023-04-16T04:58:51.394Z,5.45
2023-04-16T05:01:21.672Z,5.40
2023-04-16T05:03:50.526Z,6.18
2023-04-16T05:06:19.318Z,6.50
2023-04-16T05:08:47.965Z,5.95
2023-04-16T05:11:16.899Z,6.80
2023-04-16T05:13:47.449Z,7.22
2023-04-16T05:16:16.080Z,6.85
2023-04-16T05:18:44.691Z,7.35
2023-04-16T05:21:13.372Z,7.80
2023-04-16T05:23:41.988Z,8.15
2023-04-16T05:26:10.502Z,8.38
2023-04-16T05:28:39.199Z,8.50
2023-04-16T05:31:09.507Z,9.18
2023-04-16T05:33:38.178Z,8.87
2023-04-16T05:36:07.435Z,8.95
2023-04-16T05:38:36.024Z,10.27
2023-04-16T05:41:04.636Z,9.43
2023-04-16T05:43:33.390Z,9.95
2023-04-16T05:46:01.878Z,9.07
2023-04-16T05:48:32.035Z,10.10
2023-04-16T05:51:02.448Z,9.32
2023-04-16T05:53:31.046Z,9.73
2023-04-16T05:55:59.751Z,10.13
2023-04-16T05:58:28.353Z,9.73
2023-04-16T06:00:57.083Z,9.63
2023-04-16T06:03:25.830Z,9.65
2023-04-16T06:05:56.139Z,8.88
2023-04-16T06:08:24.858Z,9.57
2023-04-16T06:10:53.500Z,8.75
2023-04-16T06:13:22.179Z,10.00
2023-04-16T06:15:50.920Z,8.93
2023-04-16T06:18:19.474Z,8.85
2023-04-16T06:20:48.813Z,8.88
2023-04-16T06:23:19.041Z,9.65
2023-04-16T06:25:47.664Z,9.33
2023-04-16T06:28:16.174Z,8.48
2023-04-16T06:30:44.932Z,9.60
2023-04-16T06:33:13.624Z,8.95
2023-04-16T06:35:42.460Z,9.43
2023-04-16T06:38:11.025Z,9.60
2023-04-16T06:40:41.160Z,8.35
2023-04-16T06:43:09.968Z,8.70
2023-04-16T06:45:38.491Z,8.48
2023-04-16T06:48:07.581Z,9.25
2023-04-16T06:50:36.317Z,9.45
2023-04-16T06:53:05.015Z,8.93
2023-04-16T06:55:33.771Z,8.90
2023-04-16T06:58:03.875Z,7.97
2023-04-16T07:00:32.696Z,9.23
2023-04-16T07:03:03.671Z,9.48
2023-04-16T07:05:32.590Z,8.32
2023-04-16T07:08:01.157Z,8.30
2023-04-16T07:10:29.780Z,9.13
2023-04-16T07:12:58.465Z,8.80
2023-04-16T07:15:28.665Z,8.35
2023-04-16T07:17:57.431Z,8.23
2023-04-16T07:20:25.958Z,8.90
2023-04-16T07:22:54.588Z,8.43
2023-04-16T07:25:23.299Z,8.43
2023-04-16T07:27:51.732Z,8.77
2023-04-16T07:30:20.159Z,8.20
2023-04-16T07:32:49.977Z,8.63
2023-04-16T07:35:18.622Z,8.38
2023-04-16T07:37:46.915Z,7.75
2023-04-16T07:40:15.627Z,8.35
2023-04-16T07:42:44.808Z,7.90
2023-04-16T07:45:13.555Z,8.00
2023-04-16T07:47:42.079Z,8.10
2023-04-16T07:50:12.616Z,8.55
2023-04-16T07:52:42.607Z,8.40
2023-04-16T07:55:11.482Z,7.97
2023-04-16T07:57:40.034Z,8.57
2023-04-16T08:00:09.916Z,8.27
2023-04-16T08:02:41.542Z,8.65
2023-04-16T08:05:12.755Z,8.60
2023-04-16T08:10:10.773Z,8.20
2023-04-16T08:12:39.419Z,7.93
2023-04-16T08:15:09.242Z,8.52
2023-04-16T08:17:38.016Z,8.60
2023-04-16T08:20:07.806Z,8.57
2023-04-16T08:22:37.874Z,8.60
2023-04-16T08:25:07.131Z,8.48
2023-04-16T08:27:35.896Z,7.70
2023-04-16T08:30:04.571Z,8.50
2023-04-16T08:32:33.222Z,9.05
2023-04-16T08:35:01.870Z,8.63
2023-04-16T08:37:30.453Z,8.10
2023-04-16T08:40:01.284Z,7.50
2023-04-16T08:42:33.382Z,8.10
2023-04-16T08:45:08.860Z,8.07
2023-04-16T08:47:38.146Z,8.05
2023-04-16T08:50:07.819Z,8.07
2023-04-16T08:52:44.806Z,7.22
2023-04-16T08:55:17.862Z,6.15
2023-04-16T08:57:49.902Z,5.75
2023-04-16T09:00:18.925Z,6.40
2023-04-16T09:02:47.790Z,7.18
2023-04-16T09:05:18.416Z,5.70
2023-04-16T09:07:47.764Z,5.45
2023-04-16T09:10:18.809Z,5.63
2023-04-16T09:12:47.729Z,6.15
2023-04-16T09:15:16.212Z,6.70
2023-04-16T09:17:44.787Z,6.20
2023-04-16T09:20:14.039Z,6.53
2023-04-16T09:22:42.807Z,6.30
2023-04-16T09:25:12.352Z,7.28
2023-04-16T09:27:42.611Z,6.93
2023-04-16T09:30:24.837Z,7.43
2023-04-16T09:32:54.869Z,6.45
2023-04-16T09:35:23.437Z,7.18
2023-04-16T09:37:58.088Z,7.25
2023-04-16T09:40:27.800Z,7.68
2023-04-16T09:43:01.207Z,7.38
2023-04-16T09:45:34.148Z,7.70
2023-04-16T09:48:06.730Z,8.27
2023-04-16T09:50:35.229Z,8.57
2023-04-16T09:53:04.926Z,6.95
2023-04-16T09:55:34.587Z,7.85
2023-04-16T09:58:04.539Z,9.13
2023-04-16T10:00:33.133Z,8.23
2023-04-16T10:03:07.063Z,7.50
2023-04-16T10:05:36.577Z,7.97
2023-04-16T10:08:12.456Z,7.90
2023-04-16T10:10:41.729Z,8.00
2023-04-16T10:13:12.931Z,8.40
2023-04-16T10:15:42.148Z,8.63
2023-04-16T10:18:11.100Z,8.68
2023-04-16T10:20:40.602Z,8.38
2023-04-16T10:23:09.283Z,8.23
2023-04-16T10:25:39.635Z,8.27
2023-04-16T10:28:09.011Z,9.43
2023-04-16T10:30:39.678Z,9.20
2023-04-16T10:33:09.839Z,8.85
2023-04-16T10:35:41.780Z,8.88
2023-04-16T10:38:27.681Z,9.50
2023-04-16T10:41:04.315Z,9.30
2023-04-16T10:43:35.199Z,9.23
2023-04-16T10:46:20.706Z,9.50
2023-04-16T10:48:50.981Z,10.00
2023-04-16T10:51:29.467Z,9.70
2023-04-16T10:53:59.141Z,9.50
2023-04-16T10:56:28.341Z,9.60
2023-04-16T10:58:57.609Z,8.68
2023-04-16T11:01:32.858Z,9.77
2023-04-16T11:04:03.419Z,9.20
2023-04-16T11:06:32.296Z,8.10
2023-04-16T11:09:01.144Z,9.02
2023-04-16T11:11:38.890Z,8.88
2023-04-16T11:14:08.150Z,8.77
2023-04-16T11:16:42.177Z,9.23
2023-04-16T11:19:18.229Z,8.18
2023-04-16T11:21:46.959Z,7.72
2023-04-16T11:24:15.599Z,8.27
2023-04-16T11:26:44.384Z,8.13
2023-04-16T11:29:16.464Z,8.32
2023-04-16T11:31:52.049Z,8.55
2023-04-16T11:34:21.440Z,8.27
2023-04-16T11:36:51.516Z,7.70
2023-04-16T11:39:20.383Z,7.60
2023-04-16T11:41:50.249Z,7.32
2023-04-16T11:44:20.246Z,7.40
2023-04-16T11:46:50.483Z,7.72
2023-04-16T11:49:19.285Z,8.55
2023-04-16T11:51:48.899Z,7.10
2023-04-16T11:54:21.739Z,7.50
2023-04-16T11:56:51.638Z,7.80
2023-04-16T11:59:22.623Z,7.22
2023-04-16T12:04:24.759Z,7.45
2023-04-16T12:07:10.301Z,6.85
2023-04-16T12:09:40.761Z,7.10
2023-04-16T12:12:27.851Z,6.63
2023-04-16T12:14:57.589Z,7.25
2023-04-16T12:17:27.985Z,7.00
2023-04-16T12:19:59.435Z,6.50
2023-04-16T12:22:32.902Z,6.70
2023-04-16T12:25:04.469Z,7.40
2023-04-16T12:27:51.446Z,12.93
2023-04-16T12:30:24.411Z,14.63
2023-04-16T12:33:14.481Z,9.15
2023-04-16T12:35:43.816Z,34.10
2023-04-16T12:38:15.314Z,7.57
2023-04-16T12:40:44.054Z,7.40
2023-04-16T12:43:12.603Z,11.20
2023-04-16T12:45:41.879Z,7.03
2023-04-16T12:48:11.947Z,7.10
2023-04-16T12:50:40.959Z,7.18
2023-04-16T12:53:09.545Z,6.95
2023-04-16T12:55:38.215Z,7.40
2023-04-16T12:58:06.878Z,6.80
2023-04-16T13:00:35.497Z,7.00
2023-04-16T13:03:06.305Z,6.07
2023-04-16T13:05:36.425Z,7.30
2023-04-16T13:08:05.086Z,8.32
2023-04-16T13:10:33.686Z,11.45
2023-04-16T13:13:02.227Z,6.60
2023-04-16T13:15:30.732Z,6.78
2023-04-16T13:17:59.441Z,6.72
2023-04-16T13:20:28.070Z,6.55
2023-04-16T13:22:58.712Z,6.55
2023-04-16T13:25:27.430Z,6.00
2023-04-16T13:27:55.967Z,6.07
2023-04-16T13:30:25.633Z,5.70
2023-04-16T13:32:54.394Z,4.93
2023-04-16T13:35:22.942Z,5.10
2023-04-16T13:37:51.566Z,6.03
2023-04-16T13:40:21.958Z,6.32
2023-04-16T13:42:50.473Z,5.68
2023-04-16T13:45:20.485Z,6.45
2023-04-16T13:47:49.203Z,6.72
2023-04-16T13:50:17.951Z,6.53
2023-04-16T13:52:46.421Z,6.55
2023-04-16T13:55:18.370Z,6.80
2023-04-16T13:57:49.853Z,6.78
2023-04-16T14:00:20.043Z,6.38
2023-04-16T14:02:49.067Z,6.73
2023-04-16T14:05:17.901Z,6.10
2023-04-16T14:07:46.565Z,7.60
2023-04-16T14:10:15.116Z,6.18
2023-04-16T14:12:44.706Z,6.00
2023-04-16T14:15:16.060Z,5.35
2023-04-16T14:17:45.346Z,5.43
2023-04-16T14:20:15.880Z,5.72
2023-04-16T14:22:46.761Z,5.85
2023-04-16T14:25:15.400Z,5.82
2023-04-16T14:27:43.915Z,6.03
2023-04-16T14:30:13.121Z,5.40
2023-04-16T14:32:43.194Z,7.78
2023-04-16T14:35:11.806Z,5.90
2023-04-16T14:37:41.078Z,5.32
2023-04-16T14:40:11.152Z,5.22
2023-04-16T14:42:40.744Z,5.35
2023-04-16T14:45:10.391Z,5.53
2023-04-16T14:47:46.005Z,6.13
2023-04-16T14:50:16.588Z,5.97
2023-04-16T14:52:45.185Z,5.97
2023-04-16T14:55:13.912Z,6.57
2023-04-16T14:57:42.513Z,6.55
2023-04-16T15:00:12.371Z,7.60
2023-04-16T15:02:41.287Z,7.57
2023-04-16T15:05:11.085Z,7.00
2023-04-16T15:07:41.407Z,18.33
2023-04-16T15:10:12.823Z,8.60
2023-04-16T15:12:41.471Z,8.23
2023-04-16T15:15:11.336Z,7.50
2023-04-16T15:17:40.095Z,8.40
2023-04-16T15:20:10.616Z,9.23
2023-04-16T15:22:41.943Z,8.18
2023-04-16T15:25:11.102Z,8.00
2023-04-16T15:27:39.606Z,7.78
2023-04-16T15:30:09.749Z,8.35
2023-04-16T15:32:38.390Z,7.88
2023-04-16T15:35:09.858Z,9.05
2023-04-16T15:37:41.507Z,8.10
2023-04-16T15:40:10.959Z,9.03
2023-04-16T15:42:40.249Z,9.10
2023-04-16T15:45:09.263Z,8.82
2023-04-16T15:47:40.176Z,9.25
2023-04-16T15:50:10.647Z,9.55
2023-04-16T15:52:40.751Z,9.45
2023-04-16T15:55:10.805Z,9.77
2023-04-16T15:57:39.384Z,9.80
2023-04-16T16:00:13.744Z,9.45
2023-04-16T16:02:43.366Z,9.60
2023-04-16T16:05:12.507Z,9.13
2023-04-16T16:07:43.096Z,9.65
2023-04-16T16:10:13.344Z,9.68
2023-04-16T16:12:42.562Z,10.27
2023-04-16T16:15:12.165Z,9.43
2023-04-16T16:17:41.005Z,9.93
2023-04-16T16:20:10.947Z,8.77
2023-04-16T16:22:40.846Z,9.23
2023-04-16T16:25:11.367Z,9.35
2023-04-16T16:27:40.873Z,8.88
2023-04-16T16:30:10.926Z,9.15
2023-04-16T16:32:41.308Z,9.82
2023-04-16T16:35:11.156Z,9.52
2023-04-16T16:37:40.472Z,9.82
2023-04-16T16:40:11.672Z,10.88
2023-04-16T16:42:40.316Z,13.70
2023-04-16T16:45:10.050Z,17.45
2023-04-16T16:47:38.725Z,40.20
2023-04-16T16:50:08.389Z,18.17
2023-04-16T16:52:36.919Z,13.48
2023-04-16T16:55:05.918Z,10.75
2023-04-16T16:57:35.906Z,10.35
2023-04-16T17:00:06.178Z,10.85
2023-04-16T17:02:34.929Z,9.63
2023-04-16T17:05:03.553Z,8.88
2023-04-16T17:07:32.452Z,9.27
2023-04-16T17:10:03.803Z,8.82
2023-04-16T17:12:35.454Z,8.68
2023-04-16T17:15:03.878Z,8.00
2023-04-16T17:17:33.205Z,8.02
2023-04-16T17:20:04.839Z,8.40
2023-04-16T17:22:34.559Z,8.18
2023-04-16T17:25:03.979Z,8.40
2023-04-16T17:27:34.512Z,7.80
2023-04-16T17:30:05.911Z,8.70
2023-04-16T17:32:34.490Z,8.98
2023-04-16T17:35:04.891Z,8.88
2023-04-16T17:37:33.923Z,8.68
2023-04-16T17:40:05.919Z,8.70
2023-04-16T17:42:34.812Z,9.93
2023-04-16T17:45:04.793Z,9.05
2023-04-16T17:47:35.584Z,9.63
2023-04-16T17:50:04.812Z,10.10
2023-04-16T17:52:33.448Z,9.82
2023-04-16T17:55:02.144Z,9.80
2023-04-16T17:57:30.705Z,8.93
2023-04-16T17:59:59.440Z,9.80
2023-04-16T18:02:29.855Z,12.68
2023-04-16T18:04:58.480Z,12.65
2023-04-16T18:07:27.347Z,13.35
2023-04-16T18:09:55.883Z,12.88
2023-04-16T18:12:24.402Z,13.30
2023-04-16T18:14:52.864Z,11.57
2023-04-16T18:17:22.156Z,10.73
2023-04-16T18:19:52.221Z,10.90
2023-04-16T18:22:20.678Z,10.80
2023-04-16T18:24:49.262Z,10.88
2023-04-16T18:27:18.065Z,11.10
2023-04-16T18:29:46.597Z,13.40
2023-04-16T18:32:15.140Z,12.18
2023-04-16T18:34:44.331Z,11.32
2023-04-16T18:37:14.502Z,11.65
2023-04-16T18:39:43.033Z,12.20
2023-04-16T18:42:11.452Z,12.45
2023-04-16T18:44:39.980Z,11.35
2023-04-16T18:47:08.497Z,11.20
2023-04-16T18:49:37.096Z,9.88
2023-04-16T18:52:05.532Z,10.60
2023-04-16T18:54:36.812Z,10.07
2023-04-16T18:57:05.599Z,10.73
2023-04-16T18:59:34.322Z,10.10
2023-04-16T19:02:02.983Z,11.13
2023-04-16T19:04:31.764Z,12.50
2023-04-16T19:07:00.338Z,11.45
2023-04-16T19:09:28.799Z,11.02
2023-04-16T19:11:58.638Z,11.27
2023-04-16T19:14:27.094Z,10.80
2023-04-16T19:16:55.658Z,11.05
2023-04-16T19:19:24.144Z,10.43
2023-04-16T19:21:52.605Z,10.90
2023-04-16T19:24:21.210Z,11.32
2023-04-16T19:26:50.087Z,10.30
2023-04-16T19:29:19.901Z,11.27
2023-04-16T19:31:48.402Z,11.52
2023-04-16T19:34:17.048Z,13.07
2023-04-16T19:36:46.425Z,10.80
2023-04-16T19:39:15.385Z,12.55
2023-04-16T19:41:43.919Z,11.85
2023-04-16T19:44:12.479Z,12.80
2023-04-16T19:46:42.581Z,11.52
2023-04-16T19:49:11.457Z,11.35
2023-04-16T19:51:40.131Z,11.82
2023-04-16T19:54:09.780Z,11.05
2023-04-16T19:56:38.431Z,11.60
2023-04-16T19:59:07.117Z,11.30
2023-04-16T20:02:02.152Z,11.48
2023-04-16T20:04:30.924Z,12.02
2023-04-16T20:06:59.471Z,11.50
2023-04-16T20:09:28.276Z,11.30
2023-04-16T20:11:58.226Z,11.20
2023-04-16T20:14:26.757Z,12.70
2023-04-16T20:16:55.460Z,12.25
2023-04-16T20:19:26.581Z,11.52
2023-04-16T20:24:48.549Z,11.77
2023-04-16T20:27:17.114Z,10.75
2023-04-16T20:29:45.888Z,11.35
2023-04-16T20:32:14.425Z,12.07
2023-04-16T20:34:44.505Z,11.95
2023-04-16T20:37:13.093Z,11.85
2023-04-16T20:39:42.352Z,12.18
2023-04-16T20:42:11.380Z,12.27
2023-04-16T20:44:41.608Z,12.52
2023-04-16T20:47:11.710Z,12.57
2023-04-16T20:49:40.489Z,11.90
2023-04-16T20:52:10.653Z,12.70
2023-04-16T20:54:39.244Z,11.25
2023-04-16T20:57:07.951Z,13.20
2023-04-16T20:59:37.056Z,12.13
2023-04-16T21:02:06.140Z,12.65
2023-04-16T21:04:34.855Z,12.82
2023-04-16T21:07:04.401Z,13.18
2023-04-16T21:09:34.388Z,12.57
2023-04-16T21:12:03.088Z,12.90
2023-04-16T21:14:31.995Z,12.68
2023-04-16T21:17:00.658Z,12.80
2023-04-16T21:19:29.291Z,13.13
2023-04-16T21:21:58.083Z,12.70
2023-04-16T21:24:26.744Z,12.85
2023-04-16T21:26:57.564Z,13.35
2023-04-16T21:29:26.290Z,13.40
2023-04-16T21:31:55.570Z,12.73
2023-04-16T21:34:24.383Z,12.88
2023-04-16T21:36:52.930Z,13.20
2023-04-16T21:39:23.024Z,12.65
2023-04-16T21:41:51.878Z,11.52
2023-04-16T21:44:21.957Z,13.30
2023-04-16T21:46:50.600Z,13.20
2023-04-16T21:49:19.231Z,13.02
2023-04-16T21:51:47.913Z,12.32
2023-04-16T21:54:18.712Z,12.95
2023-04-16T21:56:47.463Z,13.55
2023-04-16T21:59:16.123Z,13.77
2023-04-16T22:01:46.620Z,12.68
2023-04-16T22:04:15.406Z,14.07
2023-04-16T22:06:46.450Z,12.80
2023-04-16T22:09:15.671Z,13.93
2023-04-16T22:11:46.705Z,13.48
2023-04-16T22:16:50.093Z,13.60
2023-04-16T22:19:20.003Z,13.73
2023-04-16T22:21:48.936Z,13.38
2023-04-16T22:24:17.597Z,13.88
2023-04-16T22:26:46.177Z,14.07
2023-04-16T22:29:14.674Z,14.52
2023-04-16T22:31:43.244Z,15.30
2023-04-16T22:34:13.565Z,14.27
2023-04-16T22:36:42.098Z,14.95
2023-04-16T22:39:10.794Z,14.88
2023-04-16T22:41:39.697Z,14.48
2023-04-16T22:44:08.098Z,15.95
2023-04-16T22:46:36.685Z,13.10
2023-04-16T22:49:05.375Z,15.60
2023-04-16T22:51:35.405Z,14.40
2023-04-16T22:54:04.015Z,14.32
2023-04-16T22:56:32.484Z,14.23
2023-04-16T22:59:01.046Z,13.85
2023-04-16T23:01:29.525Z,15.13
2023-04-16T23:03:58.178Z,15.40
2023-04-16T23:06:27.353Z,14.43
2023-04-16T23:08:57.363Z,14.82
2023-04-16T23:11:26.013Z,14.43
2023-04-16T23:13:54.613Z,15.05
2023-04-16T23:16:23.220Z,15.50
2023-04-16T23:18:51.786Z,17.25
2023-04-16T23:21:20.213Z,16.27
2023-04-16T23:23:48.801Z,15.90
2023-04-16T23:26:18.864Z,16.70
2023-04-16T23:28:47.272Z,16.70
2023-04-16T23:31:15.858Z,16.33
2023-04-16T23:33:44.388Z,16.95
2023-04-16T23:36:12.860Z,16.35
2023-04-16T23:38:41.376Z,16.95
2023-04-16T23:41:09.890Z,17.23
2023-04-16T23:43:40.896Z,16.23
2023-04-16T23:46:09.458Z,17.33
2023-04-16T23:48:37.894Z,17.85
2023-04-16T23:51:06.605Z,16.67
2023-04-16T23:53:36.574Z,17.27
2023-04-16T23:56:05.204Z,15.85
2023-04-16T23:58:33.665Z,17.38
